createdAt,value
2019-04-13T00:04:30.465Z,4.20
2019-04-13T00:09:35.615Z,4.10
2019-04-13T00:14:40.750Z,4.10
2019-04-13T00:19:45.818Z,4.10
2019-04-13T00:24:50.863Z,4.00
2019-04-13T00:29:55.716Z,4.10
2019-04-13T00:35:02.240Z,4.10
2019-04-13T00:40:07.190Z,4.10
2019-04-13T00:45:12.539Z,4.10
2019-04-13T00:50:19.885Z,4.00
2019-04-13T00:55:25.238Z,4.00
2019-04-13T01:00:30.178Z,4.10
2019-04-13T01:05:35.184Z,3.90
2019-04-13T01:10:41.303Z,3.90
2019-04-13T01:15:46.365Z,4.00
2019-04-13T01:20:51.177Z,3.90
2019-04-13T01:25:55.934Z,3.90
2019-04-13T01:31:02.836Z,3.90
2019-04-13T01:36:07.975Z,3.80
2019-04-13T01:41:13.064Z,3.80
2019-04-13T01:46:18.051Z,3.70
2019-04-13T01:51:26.059Z,3.70
2019-04-13T01:56:31.430Z,3.70
2019-04-13T02:01:53.206Z,3.70
2019-04-13T02:07:20.431Z,3.60
2019-04-13T02:12:25.364Z,3.60
2019-04-13T02:17:30.634Z,3.60
2019-04-13T02:22:35.729Z,3.50
2019-04-13T02:27:41.687Z,3.40
2019-04-13T02:32:46.544Z,3.40
2019-04-13T02:37:53.733Z,3.30
2019-04-13T02:42:59.127Z,3.30
2019-04-13T02:48:06.366Z,3.30
2019-04-13T02:53:27.006Z,3.20
2019-04-13T02:58:34.606Z,3.10
2019-04-13T03:03:39.475Z,3.10
2019-04-13T03:08:47.789Z,3.00
2019-04-13T03:13:55.734Z,3.00
2019-04-13T03:19:06.986Z,3.00
2019-04-13T03:24:14.579Z,2.90
2019-04-13T03:29:20.462Z,2.90
2019-04-13T03:34:26.628Z,2.90
2019-04-13T03:39:36.730Z,2.80
2019-04-13T03:44:38.832Z,2.70
2019-04-13T03:49:45.999Z,2.80
2019-04-13T03:54:53.724Z,2.80
2019-04-13T03:59:59.056Z,2.70
2019-04-13T04:05:06.106Z,2.70
2019-04-13T04:10:11.889Z,2.60
2019-04-13T04:15:16.818Z,2.60
2019-04-13T04:20:23.911Z,2.50
2019-04-13T04:25:28.967Z,2.50
2019-04-13T04:30:33.821Z,2.40
2019-04-13T04:35:38.958Z,2.50
2019-04-13T04:40:43.845Z,2.50
2019-04-13T04:45:48.690Z,2.40
2019-04-13T04:50:54.552Z,2.30
2019-04-13T04:56:01.106Z,2.50
2019-04-13T05:01:07.151Z,2.40
2019-04-13T05:06:11.913Z,2.40
2019-04-13T05:11:17.099Z,2.40
2019-04-13T05:16:24.463Z,2.40
2019-04-13T05:21:29.459Z,2.50
2019-04-13T05:26:34.594Z,2.60
2019-04-13T05:31:40.294Z,2.60
2019-04-13T05:36:47.959Z,2.80
2019-04-13T05:41:52.796Z,2.80
2019-04-13T05:46:58.289Z,3.00
2019-04-13T05:52:03.126Z,3.20
2019-04-13T05:57:08.378Z,3.30
2019-04-13T06:02:13.143Z,3.50
2019-04-13T06:07:18.234Z,3.70
2019-04-13T06:12:24.539Z,3.70
2019-04-13T06:17:31.111Z,3.80
2019-04-13T06:22:36.382Z,3.90
2019-04-13T06:27:42.413Z,4.20
2019-04-13T06:32:53.339Z,4.20
2019-04-13T06:37:58.260Z,4.30
2019-04-13T06:43:04.130Z,4.60
2019-04-13T06:48:10.694Z,4.70
2019-04-13T06:53:15.906Z,5.30
2019-04-13T06:58:21.524Z,5.40
2019-04-13T07:03:26.929Z,5.00
2019-04-13T07:08:39.614Z,5.40
2019-04-13T07:13:54.818Z,5.50
2019-04-13T07:19:06.158Z,5.80
2019-04-13T07:24:09.406Z,5.60
2019-04-13T07:29:16.006Z,5.90
2019-04-13T07:34:21.323Z,5.70
2019-04-13T07:39:27.824Z,6.30
2019-04-13T07:44:40.363Z,6.10
2019-04-13T07:50:17.807Z,6.20
2019-04-13T07:55:22.600Z,6.00
2019-04-13T08:00:28.034Z,6.80
2019-04-13T08:05:35.327Z,6.90
2019-04-13T08:10:40.191Z,6.80
2019-04-13T08:15:46.067Z,7.10
2019-04-13T08:20:51.055Z,7.10
2019-04-13T08:25:59.258Z,6.80
2019-04-13T08:31:04.205Z,6.10
2019-04-13T08:36:09.415Z,6.50
2019-04-13T08:41:20.238Z,6.30
2019-04-13T08:46:22.380Z,6.60
2019-04-13T08:51:27.306Z,7.40
2019-04-13T08:56:49.751Z,7.60
2019-04-13T09:01:54.822Z,7.80
2019-04-13T09:06:59.999Z,7.90
2019-04-13T09:12:07.161Z,7.80
2019-04-13T09:17:16.967Z,7.60
2019-04-13T09:22:22.913Z,7.70
2019-04-13T09:27:28.202Z,8.10
2019-04-13T09:32:32.962Z,8.90
2019-04-13T09:37:38.451Z,11.80
2019-04-13T09:42:46.837Z,11.60
2019-04-13T09:47:51.296Z,8.90
2019-04-13T09:52:56.073Z,8.90
2019-04-13T09:58:01.565Z,8.40
2019-04-13T10:03:09.983Z,8.30
2019-04-13T10:08:20.193Z,8.40
2019-04-13T10:13:48.702Z,8.30
2019-04-13T10:18:55.389Z,8.30
2019-04-13T10:24:01.520Z,8.60
2019-04-13T10:29:07.997Z,8.00
2019-04-13T10:34:12.771Z,8.50
2019-04-13T10:39:17.898Z,8.40
2019-04-13T10:44:25.260Z,7.90
2019-04-13T10:49:57.200Z,8.00
2019-04-13T10:55:02.102Z,8.10
2019-04-13T11:00:07.677Z,8.20
2019-04-13T11:05:12.690Z,8.30
2019-04-13T11:10:17.951Z,7.90
2019-04-13T11:15:23.188Z,8.00
2019-04-13T11:20:28.115Z,8.20
2019-04-13T11:25:32.981Z,8.10
2019-04-13T11:30:38.134Z,8.00
2019-04-13T11:35:43.203Z,8.30
2019-04-13T11:40:50.006Z,8.00
2019-04-13T11:46:16.815Z,8.10
2019-04-13T11:51:31.805Z,7.60
2019-04-13T11:56:37.107Z,8.00
2019-04-13T12:02:02.383Z,7.90
2019-04-13T12:07:26.366Z,7.40
2019-04-13T12:12:51.780Z,7.60
2019-04-13T12:18:22.470Z,7.60
2019-04-13T12:23:26.819Z,7.70
2019-04-13T12:28:32.725Z,7.80
2019-04-13T12:33:38.935Z,7.90
2019-04-13T12:38:49.785Z,7.80
2019-04-13T12:43:50.565Z,7.70
2019-04-13T12:48:55.459Z,7.70
2019-04-13T12:54:04.144Z,7.70
2019-04-13T12:59:06.877Z,8.00
2019-04-13T13:04:12.882Z,8.10
2019-04-13T13:09:18.593Z,8.00
2019-04-13T13:14:23.734Z,8.10
2019-04-13T13:19:29.084Z,8.50
2019-04-13T13:24:33.914Z,8.70
2019-04-13T13:29:38.847Z,8.50
2019-04-13T13:34:43.958Z,8.20
2019-04-13T13:39:49.120Z,8.20
2019-04-13T13:44:54.019Z,8.40
2019-04-13T13:49:58.782Z,7.90
2019-04-13T13:55:04.151Z,7.90
2019-04-13T14:00:12.923Z,7.80
2019-04-13T14:05:17.961Z,7.90
2019-04-13T14:10:22.828Z,7.50
2019-04-13T14:15:27.742Z,6.10
2019-04-13T14:20:34.301Z,6.40
2019-04-13T14:25:40.082Z,6.80
2019-04-13T14:30:45.264Z,6.70
2019-04-13T14:35:50.539Z,6.90
2019-04-13T14:40:56.432Z,6.90
2019-04-13T14:46:01.651Z,7.30
2019-04-13T14:51:07.136Z,7.50
2019-04-13T14:56:12.220Z,7.70
2019-04-13T15:01:17.239Z,7.40
2019-04-13T15:06:25.084Z,6.40
2019-04-13T15:11:28.834Z,5.70
2019-04-13T15:16:34.443Z,5.10
2019-04-13T15:21:40.119Z,5.50
2019-04-13T15:26:51.744Z,5.60
2019-04-13T15:31:53.282Z,5.90
2019-04-13T15:37:03.201Z,5.90
2019-04-13T15:42:12.342Z,5.80
2019-04-13T15:47:16.536Z,5.80
2019-04-13T15:52:19.918Z,5.90
2019-04-13T15:57:26.363Z,5.80
2019-04-13T16:02:31.743Z,6.00
2019-04-13T16:07:41.112Z,6.30
2019-04-13T16:12:51.424Z,6.20
2019-04-13T16:18:00.211Z,5.90
2019-04-13T16:23:05.399Z,6.10
2019-04-13T16:28:29.360Z,6.00
2019-04-13T16:34:05.462Z,6.10
2019-04-13T16:39:16.374Z,6.10
2019-04-13T16:44:46.778Z,6.10
2019-04-13T16:50:09.518Z,6.10
2019-04-13T16:55:22.252Z,6.20
2019-04-13T17:01:00.272Z,6.10
2019-04-13T17:06:08.895Z,6.10
2019-04-13T17:11:17.364Z,6.00
2019-04-13T17:16:23.415Z,6.00
2019-04-13T17:21:43.690Z,5.90
2019-04-13T17:27:08.655Z,5.80
2019-04-13T17:32:33.611Z,5.70
2019-04-13T17:37:39.809Z,5.70
2019-04-13T17:43:04.008Z,5.70
2019-04-13T17:48:37.516Z,5.70
2019-04-13T17:54:02.608Z,5.70
2019-04-13T17:59:26.181Z,5.80
2019-04-13T18:04:49.271Z,5.70
2019-04-13T18:10:13.013Z,5.70
2019-04-13T18:15:46.827Z,5.80
2019-04-13T18:20:52.904Z,5.70
2019-04-13T18:25:59.584Z,5.70
2019-04-13T18:31:04.666Z,5.50
2019-04-13T18:36:11.285Z,5.60
2019-04-13T18:41:16.796Z,5.60
2019-04-13T18:46:24.274Z,5.60
2019-04-13T18:51:31.186Z,5.40
2019-04-13T18:56:37.505Z,5.40
2019-04-13T19:01:43.225Z,5.30
2019-04-13T19:06:48.184Z,5.20
2019-04-13T19:11:54.023Z,5.00
2019-04-13T19:16:59.186Z,4.90
2019-04-13T19:22:04.025Z,4.80
2019-04-13T19:27:09.174Z,4.80
2019-04-13T19:32:14.014Z,4.70
2019-04-13T19:37:19.595Z,4.70
2019-04-13T19:42:25.125Z,4.60
2019-04-13T19:47:30.410Z,4.60
2019-04-13T19:52:54.447Z,4.50
2019-04-13T19:57:59.858Z,4.50
2019-04-13T20:03:05.144Z,4.40
2019-04-13T20:08:10.120Z,4.40
2019-04-13T20:13:15.044Z,4.30
2019-04-13T20:18:21.200Z,4.30
2019-04-13T20:23:26.719Z,4.30
2019-04-13T20:28:33.186Z,4.20
2019-04-13T20:33:39.296Z,4.20
2019-04-13T20:38:45.373Z,4.10
2019-04-13T20:43:59.815Z,4.20
2019-04-13T20:49:01.742Z,4.10
2019-04-13T20:54:07.266Z,4.00
2019-04-13T20:59:12.790Z,4.00
2019-04-13T21:04:17.800Z,4.00
2019-04-13T21:09:27.262Z,4.00
2019-04-13T21:14:36.509Z,3.90
2019-04-13T21:19:39.081Z,3.80
2019-04-13T21:24:45.838Z,4.00
2019-04-13T21:29:52.565Z,4.00
2019-04-13T21:34:57.590Z,3.90
2019-04-13T21:40:03.370Z,3.80
2019-04-13T21:45:08.503Z,3.80
2019-04-13T21:50:30.511Z,3.70
2019-04-13T21:55:37.795Z,3.60
2019-04-13T22:01:08.377Z,3.60
2019-04-13T22:06:14.638Z,3.60
2019-04-13T22:11:19.522Z,3.50
2019-04-13T22:16:25.408Z,3.40
2019-04-13T22:21:33.075Z,3.40
2019-04-13T22:26:39.825Z,3.40
2019-04-13T22:32:12.897Z,3.40
2019-04-13T22:37:18.646Z,3.40
2019-04-13T22:42:25.206Z,3.40
2019-04-13T22:47:32.274Z,3.30
2019-04-13T22:52:49.597Z,3.40
2019-04-13T22:57:54.475Z,3.30
2019-04-13T23:03:00.536Z,3.20
2019-04-13T23:08:05.449Z,3.20
2019-04-13T23:13:12.396Z,3.30
2019-04-13T23:18:21.149Z,3.30
2019-04-13T23:23:26.651Z,3.20
2019-04-13T23:28:31.839Z,3.10
2019-04-13T23:33:37.450Z,3.00
2019-04-13T23:38:44.341Z,2.90
2019-04-13T23:43:51.938Z,2.90
2019-04-13T23:48:56.919Z,2.90
2019-04-13T23:54:02.187Z,2.90
2019-04-13T23:59:13.259Z,2.90
